Time;durP1;ratioP1;P1;durP2;ratioP2;P2;SDS_P1;SDS_P2;PMS_P1;PMS_P2;Temp;Humidity;BMP_temperature;BMP_pressure;BME280_temperature;BME280_humidity;BME280_pressure;Samples;Min_cycle;Max_cycle;Signal;HPM_P1;HPM_P2
2021/09/21 00:00:28;;;;;;;5.07;4.65;;;;;;;;;;5032303;28;20039;-61
2021/09/21 00:02:53;;;;;;;8.00;4.50;;;;;;;;;;5032373;28;20595;-61
2021/09/21 00:05:19;;;;;;;5.10;4.70;;;;;;;;;;5033470;28;20025;-61
2021/09/21 00:07:46;;;;;;;5.13;4.63;;;;;;;;;;5032825;28;20477;-60
2021/09/21 00:10:12;;;;;;;4.75;4.35;;;;;;;;;;5031874;28;20893;-60
2021/09/21 00:12:37;;;;;;;5.35;4.80;;;;;;;;;;5032338;28;20032;-58
2021/09/21 00:15:03;;;;;;;5.57;5.07;;;;;;;;;;5031210;28;20075;-61
2021/09/21 00:17:29;;;;;;;6.05;5.22;;;;;;;;;;5033400;28;20040;-58
2021/09/21 00:19:54;;;;;;;5.43;4.78;;;;;;;;;;5031706;28;20030;-59
2021/09/21 00:22:19;;;;;;;5.55;4.93;;;;;;;;;;5033156;28;20032;-60
2021/09/21 00:24:44;;;;;;;5.32;4.85;;;;;;;;;;5032974;28;20651;-61
2021/09/21 00:27:10;;;;;;;5.47;4.90;;;;;;;;;;5031874;28;20485;-62
2021/09/21 00:29:35;;;;;;;6.70;4.90;;;;;;;;;;5034419;28;20029;-61
2021/09/21 00:32:01;;;;;;;5.70;5.10;;;;;;;;;;5032264;28;20783;-61
2021/09/21 00:34:35;;;;;;;8.27;5.05;;;;;;;;;;5031595;28;20116;-60
2021/09/21 00:37:00;;;;;;;6.78;5.03;;;;;;;;;;5033868;28;20067;-60
2021/09/21 00:39:25;;;;;;;7.25;4.63;;;;;;;;;;5032124;28;20024;-60
2021/09/21 00:41:51;;;;;;;6.20;4.25;;;;;;;;;;5032031;28;20022;-59
2021/09/21 00:44:18;;;;;;;5.30;4.80;;;;;;;;;;5032946;28;20060;-61
2021/09/21 00:46:44;;;;;;;5.32;4.60;;;;;;;;;;5037859;28;20407;-61
2021/09/21 00:49:09;;;;;;;4.43;4.03;;;;;;;;;;5037127;28;20380;-59
2021/09/21 00:51:34;;;;;;;6.20;4.88;;;;;;;;;;5033692;28;20427;-60
2021/09/21 00:54:00;;;;;;;5.47;4.85;;;;;;;;;;5035199;28;20114;-60
2021/09/21 00:56:25;;;;;;;5.15;4.45;;;;;;;;;;5035253;28;20029;-60
2021/09/21 00:58:50;;;;;;;5.95;4.50;;;;;;;;;;5034391;28;20048;-60
2021/09/21 01:01:15;;;;;;;5.32;4.93;;;;;;;;;;5036158;28;20063;-60
2021/09/21 01:03:41;;;;;;;5.55;4.90;;;;;;;;;;5034555;28;20034;-61
2021/09/21 01:06:06;;;;;;;5.63;4.95;;;;;;;;;;5034239;28;20021;-59
2021/09/21 01:08:31;;;;;;;5.38;4.88;;;;;;;;;;5033811;28;20030;-59
2021/09/21 01:10:57;;;;;;;5.30;4.80;;;;;;;;;;5034198;28;20029;-59
2021/09/21 01:13:22;;;;;;;5.38;4.78;;;;;;;;;;5037658;28;20039;-60
2021/09/21 01:15:47;;;;;;;4.75;4.20;;;;;;;;;;5036514;28;20033;-62
2021/09/21 01:18:13;;;;;;;6.75;5.07;;;;;;;;;;5037891;28;20043;-61
2021/09/21 01:20:38;;;;;;;6.50;5.18;;;;;;;;;;5037166;28;20027;-59
2021/09/21 01:23:04;;;;;;;5.57;4.97;;;;;;;;;;5035942;28;20102;-59
2021/09/21 01:25:29;;;;;;;5.40;4.65;;;;;;;;;;5035746;28;20029;-60
2021/09/21 01:27:55;;;;;;;6.50;5.20;;;;;;;;;;5035296;28;20124;-60
2021/09/21 01:30:20;;;;;;;7.50;4.93;;;;;;;;;;5034224;28;20102;-59
2021/09/21 01:32:45;;;;;;;6.25;5.50;;;;;;;;;;5035306;28;20033;-61
2021/09/21 01:35:11;;;;;;;6.95;5.47;;;;;;;;;;5035127;28;20113;-61
2021/09/21 01:37:38;;;;;;;5.50;4.90;;;;;;;;;;5034796;28;20048;-60
2021/09/21 01:40:04;;;;;;;6.25;4.93;;;;;;;;;;5033602;28;20107;-59
2021/09/21 01:42:29;;;;;;;6.75;5.38;;;;;;;;;;5035496;28;20568;-59
2021/09/21 01:44:54;;;;;;;7.28;4.97;;;;;;;;;;5035260;28;20386;-60
2021/09/21 01:47:21;;;;;;;6.07;5.57;;;;;;;;;;5036750;28;20040;-60
2021/09/21 01:52:49;;;;;;;4.97;4.57;;;;;;;;;;5036477;28;20052;-59
2021/09/21 01:58:16;;;;;;;5.40;4.90;;;;;;;;;;5033010;28;20025;-59
2021/09/21 02:01:01;;;;;;;4.95;4.00;;;;;;;;;;5022859;28;20930;-60
2021/09/21 02:03:26;;;;;;;4.90;4.40;;;;;;;;;;5022195;28;20037;-60
2021/09/21 02:05:51;;;;;;;6.53;5.65;;;;;;;;;;5023564;28;20050;-59
2021/09/21 02:08:17;;;;;;;5.95;5.03;;;;;;;;;;5024043;28;20116;-60
2021/09/21 02:10:42;;;;;;;5.35;4.85;;;;;;;;;;5022540;28;20025;-60
2021/09/21 02:13:07;;;;;;;8.25;5.18;;;;;;;;;;5023787;28;20126;-59
2021/09/21 02:15:33;;;;;;;5.45;4.95;;;;;;;;;;5023410;28;20539;-60
2021/09/21 02:18:01;;;;;;;6.38;5.57;;;;;;;;;;5023738;28;20021;-60
2021/09/21 02:20:27;;;;;;;9.45;5.50;;;;;;;;;;5022959;28;20033;-59
2021/09/21 02:22:52;;;;;;;5.32;4.82;;;;;;;;;;5023172;28;20026;-58
2021/09/21 02:25:18;;;;;;;5.78;5.18;;;;;;;;;;5022807;28;20517;-58
2021/09/21 02:27:43;;;;;;;8.73;5.78;;;;;;;;;;5021257;28;20021;-59
2021/09/21 02:30:09;;;;;;;6.90;4.85;;;;;;;;;;5022374;28;20049;-59
2021/09/21 02:32:34;;;;;;;6.28;5.20;;;;;;;;;;5032798;28;20124;-60
2021/09/21 02:34:59;;;;;;;6.63;5.30;;;;;;;;;;5034923;28;20029;-59
2021/09/21 02:37:25;;;;;;;6.55;5.10;;;;;;;;;;5033961;28;20049;-57
2021/09/21 02:39:50;;;;;;;7.88;5.55;;;;;;;;;;5066281;28;20027;-58
2021/09/21 02:42:15;;;;;;;7.07;5.20;;;;;;;;;;5034156;28;20382;-58
2021/09/21 02:44:40;;;;;;;6.18;5.13;;;;;;;;;;5033704;28;20021;-58
2021/09/21 02:47:06;;;;;;;5.70;5.13;;;;;;;;;;5034036;28;20028;-58
2021/09/21 02:49:31;;;;;;;5.82;5.22;;;;;;;;;;5035259;28;20408;-58
2021/09/21 02:51:57;;;;;;;5.40;4.90;;;;;;;;;;5034345;28;20028;-58
2021/09/21 02:54:22;;;;;;;7.45;5.57;;;;;;;;;;5033667;28;20049;-59
2021/09/21 02:56:47;;;;;;;8.00;5.55;;;;;;;;;;5036437;28;20136;-62
2021/09/21 02:59:13;;;;;;;8.13;5.20;;;;;;;;;;5036325;28;20087;-59
2021/09/21 03:01:38;;;;;;;6.53;5.43;;;;;;;;;;5030855;28;20176;-56
2021/09/21 03:04:09;;;;;;;5.53;5.03;;;;;;;;;;5033504;28;20450;-57
2021/09/21 03:06:40;;;;;;;6.05;5.45;;;;;;;;;;5035419;28;20025;-58
2021/09/21 03:17:30;;;;;;;7.07;5.97;;;;;;;;;;5033368;28;20036;-54
2021/09/21 03:19:56;;;;;;;6.00;5.18;;;;;;;;;;5034438;28;20022;-56
2021/09/21 03:22:22;;;;;;;6.55;5.35;;;;;;;;;;5034263;28;20063;-53
2021/09/21 03:24:48;;;;;;;7.18;6.28;;;;;;;;;;5033962;28;20036;-56
2021/09/21 03:27:13;;;;;;;7.00;6.05;;;;;;;;;;5034680;28;20734;-58
2021/09/21 03:29:38;;;;;;;6.20;5.60;;;;;;;;;;5037261;28;20014;-58
2021/09/21 03:32:03;;;;;;;9.00;5.57;;;;;;;;;;5035137;28;20433;-56
2021/09/21 03:34:30;;;;;;;7.40;5.50;;;;;;;;;;5032757;28;20018;-57
2021/09/21 03:36:55;;;;;;;6.95;5.53;;;;;;;;;;5033430;28;20053;-56
2021/09/21 03:39:20;;;;;;;7.35;6.20;;;;;;;;;;5031935;28;20022;-55
2021/09/21 03:41:46;;;;;;;7.55;5.45;;;;;;;;;;5032718;28;20552;-53
2021/09/21 03:44:11;;;;;;;7.57;5.10;;;;;;;;;;5035910;28;20029;-57
2021/09/21 03:46:36;;;;;;;7.57;6.15;;;;;;;;;;5033482;28;20070;-58
2021/09/21 03:49:02;;;;;;;7.72;5.75;;;;;;;;;;5031382;28;20049;-56
2021/09/21 03:51:28;;;;;;;5.53;4.80;;;;;;;;;;5034756;28;20021;-56
2021/09/21 03:53:53;;;;;;;5.55;5.00;;;;;;;;;;5031979;28;20035;-56
2021/09/21 03:56:18;;;;;;;6.75;5.47;;;;;;;;;;5031968;28;20017;-57
2021/09/21 03:58:44;;;;;;;8.48;5.60;;;;;;;;;;5033108;28;20109;-57
2021/09/21 04:01:09;;;;;;;6.43;5.10;;;;;;;;;;5032789;28;20021;-56
2021/09/21 04:03:34;;;;;;;7.55;5.90;;;;;;;;;;5033142;28;20037;-55
2021/09/21 04:05:59;;;;;;;7.25;5.75;;;;;;;;;;5031397;28;20381;-57
2021/09/21 04:08:25;;;;;;;7.13;6.22;;;;;;;;;;5031283;28;20063;-56
2021/09/21 04:10:50;;;;;;;6.05;5.07;;;;;;;;;;5031587;28;20021;-56
2021/09/21 04:13:15;;;;;;;6.65;5.63;;;;;;;;;;5030613;28;20029;-56
2021/09/21 04:15:41;;;;;;;7.28;5.15;;;;;;;;;;5031917;28;20021;-56
2021/09/21 04:18:08;;;;;;;6.35;5.75;;;;;;;;;;5030916;28;20030;-57
2021/09/21 04:20:33;;;;;;;5.72;5.03;;;;;;;;;;5034635;28;20493;-58
2021/09/21 04:22:58;;;;;;;6.45;5.85;;;;;;;;;;5033957;28;20116;-56
2021/09/21 04:25:24;;;;;;;6.90;5.90;;;;;;;;;;5036883;28;20135;-69
2021/09/21 04:27:49;;;;;;;7.72;5.38;;;;;;;;;;5036979;28;20107;-58
2021/09/21 04:30:20;;;;;;;6.47;5.40;;;;;;;;;;5034266;28;20024;-59
2021/09/21 04:32:45;;;;;;;5.55;5.03;;;;;;;;;;5033259;28;20545;-58
2021/09/21 04:35:10;;;;;;;6.18;5.55;;;;;;;;;;5033313;28;20036;-55
2021/09/21 04:37:36;;;;;;;6.53;5.40;;;;;;;;;;5035234;28;20057;-58
2021/09/21 04:40:01;;;;;;;8.40;6.47;;;;;;;;;;5036932;28;20070;-56
2021/09/21 04:42:26;;;;;;;6.25;5.65;;;;;;;;;;5034981;28;20524;-57
2021/09/21 04:44:52;;;;;;;5.68;5.18;;;;;;;;;;5037141;28;20079;-57
2021/09/21 04:47:17;;;;;;;6.47;5.75;;;;;;;;;;5036728;28;20079;-62
2021/09/21 04:49:42;;;;;;;5.72;5.22;;;;;;;;;;5035669;28;20029;-61
2021/09/21 04:52:07;;;;;;;8.32;6.43;;;;;;;;;;5036861;28;20448;-63
2021/09/21 04:54:33;;;;;;;6.07;5.40;;;;;;;;;;5037585;28;20032;-63
2021/09/21 04:56:58;;;;;;;6.63;5.40;;;;;;;;;;5036240;28;20032;-62
2021/09/21 04:59:23;;;;;;;8.20;6.28;;;;;;;;;;5035877;28;20021;-61
2021/09/21 05:01:48;;;;;;;6.22;5.55;;;;;;;;;;5035663;28;20029;-62
2021/09/21 05:04:14;;;;;;;6.50;5.90;;;;;;;;;;5036265;28;20025;-65
2021/09/21 05:06:39;;;;;;;7.38;5.80;;;;;;;;;;5035280;28;20469;-62
2021/09/21 05:09:09;;;;;;;7.45;5.63;;;;;;;;;;5038417;28;20025;-62
2021/09/21 05:11:35;;;;;;;8.82;5.80;;;;;;;;;;5035306;28;20037;-67
2021/09/21 05:14:00;;;;;;;7.55;6.03;;;;;;;;;;5036742;28;20022;-58
2021/09/21 05:16:25;;;;;;;7.75;6.30;;;;;;;;;;5034428;28;20078;-57
2021/09/21 05:18:50;;;;;;;6.97;5.75;;;;;;;;;;5035442;28;20078;-58
2021/09/21 05:21:16;;;;;;;6.80;6.07;;;;;;;;;;5035046;28;20048;-56
2021/09/21 05:23:41;;;;;;;6.30;5.68;;;;;;;;;;5035008;28;20025;-57
2021/09/21 05:26:06;;;;;;;9.68;6.00;;;;;;;;;;5037215;28;20029;-60
2021/09/21 05:28:31;;;;;;;6.20;5.60;;;;;;;;;;5034939;28;20017;-57
2021/09/21 05:30:57;;;;;;;5.70;5.10;;;;;;;;;;5032907;28;20052;-54
2021/09/21 05:33:22;;;;;;;8.68;5.63;;;;;;;;;;5033346;28;20021;-56
2021/09/21 05:35:47;;;;;;;7.47;5.85;;;;;;;;;;5033812;28;20055;-58
2021/09/21 05:38:12;;;;;;;6.45;5.55;;;;;;;;;;5033919;28;20135;-57
2021/09/21 05:40:40;;;;;;;7.80;6.10;;;;;;;;;;5035371;28;20017;-58
2021/09/21 05:43:05;;;;;;;7.75;6.05;;;;;;;;;;5036855;28;20029;-59
2021/09/21 05:45:30;;;;;;;7.53;5.55;;;;;;;;;;5037337;28;20099;-57
2021/09/21 05:47:55;;;;;;;7.03;5.60;;;;;;;;;;5038478;28;20060;-60
2021/09/21 05:50:21;;;;;;;5.35;4.85;;;;;;;;;;5035087;28;20441;-55
2021/09/21 05:52:46;;;;;;;8.98;6.38;;;;;;;;;;5035796;28;20556;-57
2021/09/21 05:55:12;;;;;;;6.50;5.55;;;;;;;;;;5034544;28;20029;-57
2021/09/21 05:57:39;;;;;;;7.72;6.18;;;;;;;;;;5036007;28;20025;-57
2021/09/21 06:00:05;;;;;;;10.07;5.03;;;;;;;;;;5034725;28;20021;-57
2021/09/21 06:02:30;;;;;;;7.00;5.88;;;;;;;;;;5034427;28;20086;-58
2021/09/21 06:04:55;;;;;;;7.65;5.22;;;;;;;;;;5034680;28;20067;-58
2021/09/21 06:07:20;;;;;;;7.15;5.20;;;;;;;;;;5031943;28;20032;-57
2021/09/21 06:09:46;;;;;;;9.00;5.70;;;;;;;;;;5033337;28;20100;-55
2021/09/21 06:12:11;;;;;;;6.50;5.30;;;;;;;;;;5032346;28;20053;-54
2021/09/21 06:14:37;;;;;;;7.22;6.07;;;;;;;;;;5032198;28;20025;-57
2021/09/21 06:17:03;;;;;;;6.70;6.00;;;;;;;;;;5033359;28;20029;-55
2021/09/21 06:19:29;;;;;;;9.75;6.15;;;;;;;;;;5033145;28;20067;-54
2021/09/21 06:21:55;;;;;;;8.57;6.13;;;;;;;;;;5033363;28;20043;-58
2021/09/21 06:24:20;;;;;;;6.70;5.93;;;;;;;;;;5035531;28;20022;-57
2021/09/21 06:26:45;;;;;;;7.13;5.63;;;;;;;;;;5032625;28;20028;-57
2021/09/21 06:29:11;;;;;;;5.53;5.03;;;;;;;;;;5034008;28;20044;-58
2021/09/21 06:31:36;;;;;;;9.23;5.70;;;;;;;;;;5033951;28;20033;-53
2021/09/21 06:34:01;;;;;;;9.10;6.78;;;;;;;;;;5033534;28;20017;-56
2021/09/21 06:36:27;;;;;;;7.50;5.70;;;;;;;;;;5032727;28;20397;-57
2021/09/21 06:38:52;;;;;;;8.25;5.75;;;;;;;;;;5034188;28;20078;-56
2021/09/21 06:41:17;;;;;;;7.30;5.68;;;;;;;;;;5033109;28;20078;-59
2021/09/21 06:43:43;;;;;;;7.13;5.90;;;;;;;;;;5034379;28;20037;-59
2021/09/21 06:46:08;;;;;;;7.10;6.00;;;;;;;;;;5031491;28;20087;-56
2021/09/21 06:48:38;;;;;;;7.00;5.63;;;;;;;;;;5034275;28;20060;-60
2021/09/21 06:51:04;;;;;;;7.90;5.85;;;;;;;;;;5033159;28;20072;-60
2021/09/21 06:53:29;;;;;;;10.60;5.85;;;;;;;;;;5035112;28;20457;-60
2021/09/21 06:55:54;;;;;;;7.13;5.40;;;;;;;;;;5036511;28;20078;-65
2021/09/21 06:58:19;;;;;;;9.13;5.85;;;;;;;;;;5038899;28;20021;-64
2021/09/21 07:00:46;;;;;;;7.68;5.57;;;;;;;;;;5037096;28;20069;-62
2021/09/21 07:03:11;;;;;;;6.45;5.85;;;;;;;;;;5032361;28;20392;-63
2021/09/21 07:05:37;;;;;;;8.73;6.28;;;;;;;;;;5033137;28;20033;-63
2021/09/21 07:08:02;;;;;;;10.13;6.75;;;;;;;;;;5031103;28;20036;-61
2021/09/21 07:10:27;;;;;;;7.40;5.55;;;;;;;;;;5033123;28;20469;-63
2021/09/21 07:12:53;;;;;;;8.50;6.60;;;;;;;;;;5036097;28;20028;-62
2021/09/21 07:15:22;;;;;;;7.10;5.97;;;;;;;;;;5033044;28;20476;-63
2021/09/21 07:17:47;;;;;;;6.30;5.28;;;;;;;;;;5031807;28;20028;-61
2021/09/21 07:20:13;;;;;;;8.43;6.00;;;;;;;;;;5034678;28;20444;-62
2021/09/21 07:22:38;;;;;;;7.65;5.93;;;;;;;;;;5030627;28;20028;-61
2021/09/21 07:25:04;;;;;;;6.47;5.55;;;;;;;;;;5031170;28;20579;-62
2021/09/21 07:27:29;;;;;;;8.02;5.60;;;;;;;;;;5032937;28;20019;-60
2021/09/21 07:29:54;;;;;;;6.90;5.88;;;;;;;;;;5033890;28;20112;-61
2021/09/21 07:32:20;;;;;;;7.80;6.32;;;;;;;;;;5036579;28;20592;-63
2021/09/21 07:34:45;;;;;;;7.22;5.95;;;;;;;;;;5031614;28;20032;-62
2021/09/21 07:37:12;;;;;;;9.50;5.85;;;;;;;;;;5032526;28;20056;-62
2021/09/21 07:39:37;;;;;;;7.40;6.15;;;;;;;;;;5032317;28;20096;-64
2021/09/21 07:42:03;;;;;;;5.97;5.38;;;;;;;;;;5032803;28;20349;-61
2021/09/21 07:44:28;;;;;;;10.00;5.43;;;;;;;;;;5032728;28;20032;-61
2021/09/21 07:46:53;;;;;;;8.00;6.32;;;;;;;;;;5031649;28;20025;-63
2021/09/21 07:49:19;;;;;;;6.22;5.35;;;;;;;;;;5034129;28;20024;-60
2021/09/21 07:51:45;;;;;;;7.53;6.40;;;;;;;;;;5032794;28;20021;-62
2021/09/21 07:54:11;;;;;;;6.50;5.47;;;;;;;;;;5032741;28;20468;-61
2021/09/21 07:56:36;;;;;;;6.97;6.00;;;;;;;;;;5031685;28;20109;-63
2021/09/21 07:59:03;;;;;;;9.32;5.97;;;;;;;;;;5032123;28;20037;-60
2021/09/21 08:01:29;;;;;;;10.48;5.93;;;;;;;;;;5033089;28;20583;-60
2021/09/21 08:03:56;;;;;;;7.72;5.43;;;;;;;;;;5033658;28;20025;-62
2021/09/21 08:06:21;;;;;;;7.43;6.22;;;;;;;;;;5032975;28;20063;-59
2021/09/21 08:08:46;;;;;;;7.38;5.63;;;;;;;;;;5032283;28;20017;-57
2021/09/21 08:11:12;;;;;;;8.50;5.78;;;;;;;;;;5030619;28;20021;-56
2021/09/21 08:13:37;;;;;;;5.78;5.18;;;;;;;;;;5031497;28;20044;-60
2021/09/21 08:16:03;;;;;;;7.30;5.55;;;;;;;;;;5033756;28;20117;-60
2021/09/21 08:18:28;;;;;;;5.75;5.20;;;;;;;;;;5031429;28;20109;-60
2021/09/21 08:20:53;;;;;;;7.20;5.60;;;;;;;;;;5032454;28;20381;-58
2021/09/21 08:23:19;;;;;;;6.80;6.10;;;;;;;;;;5031154;28;20033;-55
2021/09/21 08:25:44;;;;;;;6.07;5.30;;;;;;;;;;5033353;28;20013;-55
2021/09/21 08:28:09;;;;;;;6.65;5.20;;;;;;;;;;5032176;28;20425;-56
2021/09/21 08:30:34;;;;;;;8.70;7.20;;;;;;;;;;5031924;28;20466;-58
2021/09/21 08:33:00;;;;;;;5.28;4.78;;;;;;;;;;5030106;28;20119;-59
2021/09/21 08:35:26;;;;;;;7.85;4.88;;;;;;;;;;5030876;28;20052;-59
2021/09/21 08:37:51;;;;;;;6.38;5.72;;;;;;;;;;5031902;28;20541;-57
2021/09/21 08:40:17;;;;;;;5.15;4.65;;;;;;;;;;5030446;28;20013;-56
2021/09/21 08:42:42;;;;;;;6.72;4.53;;;;;;;;;;5031044;28;20109;-58
2021/09/21 08:45:08;;;;;;;5.82;4.68;;;;;;;;;;5030363;28;20025;-56
2021/09/21 08:47:34;;;;;;;6.38;4.70;;;;;;;;;;5032080;28;20032;-60
2021/09/21 08:50:01;;;;;;;7.80;5.53;;;;;;;;;;5029127;28;20548;-59
2021/09/21 08:52:27;;;;;;;6.57;4.47;;;;;;;;;;5031773;28;20108;-58
2021/09/21 08:54:52;;;;;;;6.57;4.43;;;;;;;;;;5030599;28;20195;-59
2021/09/21 08:57:17;;;;;;;6.53;4.63;;;;;;;;;;5032831;28;20030;-60
2021/09/21 08:59:44;;;;;;;5.30;4.30;;;;;;;;;;5031288;28;20024;-63
2021/09/21 09:02:10;;;;;;;5.85;4.78;;;;;;;;;;5028713;28;20021;-66
2021/09/21 09:04:37;;;;;;;5.28;4.43;;;;;;;;;;5032566;28;20495;-60
2021/09/21 09:07:03;;;;;;;6.00;4.28;;;;;;;;;;5032564;28;20096;-61
2021/09/21 09:09:32;;;;;;;20.48;12.20;;;;;;;;;;5034126;28;20379;-58
2021/09/21 09:11:59;;;;;;;7.43;5.78;;;;;;;;;;5033928;28;20029;-60
2021/09/21 09:14:32;;;;;;;6.70;4.53;;;;;;;;;;5035583;28;20423;-59
2021/09/21 09:16:59;;;;;;;6.60;5.00;;;;;;;;;;5036351;28;20017;-60
2021/09/21 09:19:40;;;;;;;6.80;5.13;;;;;;;;;;5036521;28;20029;-60
2021/09/21 09:22:07;;;;;;;8.70;5.43;;;;;;;;;;5034465;28;20029;-60
2021/09/21 09:24:44;;;;;;;5.50;4.60;;;;;;;;;;5037182;28;20372;-61
2021/09/21 09:27:09;;;;;;;4.97;4.57;;;;;;;;;;5035189;28;20029;-59
2021/09/21 09:29:34;;;;;;;5.07;4.55;;;;;;;;;;5035287;28;20385;-60
2021/09/21 09:32:01;;;;;;;5.63;4.97;;;;;;;;;;5035823;28;20036;-60
2021/09/21 09:34:26;;;;;;;8.93;4.43;;;;;;;;;;5034527;28;20020;-58
2021/09/21 09:36:58;;;;;;;4.40;4.00;;;;;;;;;;5035308;28;20824;-59
2021/09/21 09:39:23;;;;;;;7.28;4.82;;;;;;;;;;5033796;28;20425;-56
2021/09/21 09:41:50;;;;;;;4.93;4.43;;;;;;;;;;5036670;28;20514;-59
2021/09/21 09:44:17;;;;;;;6.55;4.93;;;;;;;;;;5032961;28;20032;-61
2021/09/21 09:46:45;;;;;;;5.85;4.57;;;;;;;;;;5035480;28;20465;-60
2021/09/21 09:49:11;;;;;;;5.00;4.50;;;;;;;;;;5035819;28;20473;-59
2021/09/21 09:51:44;;;;;;;4.88;4.32;;;;;;;;;;5032817;28;20033;-58
2021/09/21 09:54:09;;;;;;;5.50;4.50;;;;;;;;;;5035188;28;20109;-58
2021/09/21 09:56:35;;;;;;;6.60;5.30;;;;;;;;;;5032081;28;20028;-56
2021/09/21 09:59:00;;;;;;;5.28;4.72;;;;;;;;;;5034599;28;20189;-57
2021/09/21 10:01:26;;;;;;;5.30;4.40;;;;;;;;;;5035480;28;20473;-58
2021/09/21 10:03:51;;;;;;;7.68;4.30;;;;;;;;;;5034447;28;20179;-56
2021/09/21 10:06:16;;;;;;;6.05;3.85;;;;;;;;;;5035120;28;20109;-55
2021/09/21 10:08:42;;;;;;;4.57;4.10;;;;;;;;;;5031986;28;20024;-57
2021/09/21 10:11:07;;;;;;;4.90;4.40;;;;;;;;;;5034654;28;20366;-55
2021/09/21 10:13:33;;;;;;;6.25;4.53;;;;;;;;;;5035020;28;20021;-58
2021/09/21 10:15:58;;;;;;;5.32;4.82;;;;;;;;;;5030971;28;20580;-59
2021/09/21 10:18:25;;;;;;;5.78;4.45;;;;;;;;;;5034656;28;20517;-58
2021/09/21 10:20:58;;;;;;;5.38;4.10;;;;;;;;;;5036156;28;20025;-56
2021/09/21 10:23:29;;;;;;;5.65;4.93;;;;;;;;;;5031494;28;20032;-58
2021/09/21 10:25:54;;;;;;;4.90;4.18;;;;;;;;;;5033724;28;20034;-58
2021/09/21 10:28:20;;;;;;;4.78;4.28;;;;;;;;;;5034016;28;20375;-58
2021/09/21 10:30:56;;;;;;;4.70;4.30;;;;;;;;;;5035066;28;20032;-57
2021/09/21 10:33:25;;;;;;;5.35;3.47;;;;;;;;;;5034422;28;20039;-57
2021/09/21 10:35:52;;;;;;;5.15;3.90;;;;;;;;;;5034157;28;20057;-56
2021/09/21 10:38:19;;;;;;;3.35;3.13;;;;;;;;;;5033750;28;20033;-58
2021/09/21 10:40:46;;;;;;;4.90;4.00;;;;;;;;;;5034416;28;20108;-57
2021/09/21 10:43:26;;;;;;;3.80;3.50;;;;;;;;;;5034360;28;20034;-57
2021/09/21 10:45:53;;;;;;;4.60;3.47;;;;;;;;;;5032242;28;20028;-58
2021/09/21 10:48:20;;;;;;;3.15;2.83;;;;;;;;;;5033691;28;20044;-56
2021/09/21 10:50:52;;;;;;;3.20;3.00;;;;;;;;;;5034251;28;20478;-57
2021/09/21 10:53:21;;;;;;;4.57;3.45;;;;;;;;;;5033396;28;20598;-57
2021/09/21 10:55:46;;;;;;;3.58;3.22;;;;;;;;;;5032517;28;20469;-59
2021/09/21 10:58:19;;;;;;;3.55;3.25;;;;;;;;;;5035419;28;20070;-58
2021/09/21 11:00:44;;;;;;;3.28;3.00;;;;;;;;;;5032127;28;20103;-56
2021/09/21 11:03:12;;;;;;;3.13;2.85;;;;;;;;;;5032931;28;20025;-56
2021/09/21 11:05:37;;;;;;;3.85;3.33;;;;;;;;;;5032803;28;20156;-58
2021/09/21 11:08:03;;;;;;;3.22;3.03;;;;;;;;;;5032413;28;20517;-57
2021/09/21 11:10:30;;;;;;;2.95;2.45;;;;;;;;;;5033579;28;20465;-58
2021/09/21 11:12:56;;;;;;;3.15;2.85;;;;;;;;;;5036706;28;20033;-54
2021/09/21 11:15:22;;;;;;;3.17;2.63;;;;;;;;;;5033123;28;20028;-55
2021/09/21 11:17:47;;;;;;;11.43;3.75;;;;;;;;;;5031541;28;20409;-59
2021/09/21 11:20:13;;;;;;;3.47;3.03;;;;;;;;;;5033747;28;20075;-54
2021/09/21 11:22:38;;;;;;;3.08;2.88;;;;;;;;;;5032325;28;20021;-55
2021/09/21 11:25:05;;;;;;;2.85;2.60;;;;;;;;;;5033744;28;20477;-56
2021/09/21 11:27:32;;;;;;;2.97;2.80;;;;;;;;;;5032759;28;20041;-57
2021/09/21 11:30:02;;;;;;;4.05;3.00;;;;;;;;;;5034005;28;20114;-55
2021/09/21 11:32:27;;;;;;;4.03;2.92;;;;;;;;;;5033092;28;20036;-53
2021/09/21 11:34:57;;;;;;;3.08;2.70;;;;;;;;;;5033472;28;20491;-58
2021/09/21 11:37:23;;;;;;;3.60;3.30;;;;;;;;;;5033386;28;20136;-60
2021/09/21 11:39:48;;;;;;;3.10;2.90;;;;;;;;;;5034180;28;20104;-62
2021/09/21 11:42:19;;;;;;;3.28;3.00;;;;;;;;;;5033455;28;20447;-60
2021/09/21 11:44:45;;;;;;;2.67;2.45;;;;;;;;;;5034422;28;20728;-60
2021/09/21 11:47:10;;;;;;;3.10;2.70;;;;;;;;;;5032434;28;20060;-58
2021/09/21 11:49:35;;;;;;;4.00;3.13;;;;;;;;;;5033037;28;20749;-58
2021/09/21 11:52:02;;;;;;;3.63;2.80;;;;;;;;;;5031606;28;20031;-60
2021/09/21 11:54:30;;;;;;;5.05;2.40;;;;;;;;;;5031699;28;20036;-57
2021/09/21 11:56:56;;;;;;;2.80;2.60;;;;;;;;;;5032958;28;20026;-58
2021/09/21 11:59:22;;;;;;;3.00;2.80;;;;;;;;;;5032540;28;20493;-59
2021/09/21 12:01:48;;;;;;;2.90;2.70;;;;;;;;;;5227370;22;20033;-89
2021/09/21 12:04:14;;;;;;;2.70;2.50;;;;;;;;;;5066371;28;20032;-89
2021/09/21 12:06:39;;;;;;;2.95;2.75;;;;;;;;;;5067721;28;20725;-89
2021/09/21 12:09:06;;;;;;;2.70;2.42;;;;;;;;;;5067389;28;20021;-89
2021/09/21 12:11:35;;;;;;;3.17;2.88;;;;;;;;;;5076326;28;20009;-89
2021/09/21 12:14:01;;;;;;;2.95;2.75;;;;;;;;;;5069219;28;20146;-86
2021/09/21 12:16:27;;;;;;;2.95;2.75;;;;;;;;;;5072462;28;20005;-90
2021/09/21 12:18:52;;;;;;;2.60;2.50;;;;;;;;;;5076934;28;20036;-89
2021/09/21 12:21:18;;;;;;;2.53;2.40;;;;;;;;;;5072913;28;20010;-92
2021/09/21 12:23:45;;;;;;;3.17;2.70;;;;;;;;;;5075597;28;20101;-87
2021/09/21 12:26:11;;;;;;;3.00;2.80;;;;;;;;;;5071879;28;20021;-84
2021/09/21 12:28:37;;;;;;;2.75;2.55;;;;;;;;;;5067323;28;20046;-85
2021/09/21 12:31:17;;;;;;;2.13;2.00;;;;;;;;;;5073573;28;19997;-86
2021/09/21 12:33:43;;;;;;;2.65;2.50;;;;;;;;;;5075607;28;20013;-86
2021/09/21 12:36:20;;;;;;;3.58;3.33;;;;;;;;;;5071442;28;20078;-84
2021/09/21 12:39:00;;;;;;;3.33;2.95;;;;;;;;;;5077376;28;20005;-88
2021/09/21 12:41:25;;;;;;;3.17;2.88;;;;;;;;;;5068050;28;20033;-87
2021/09/21 12:43:55;;;;;;;3.35;2.80;;;;;;;;;;5076782;28;20027;-85
2021/09/21 12:46:20;;;;;;;2.85;2.60;;;;;;;;;;5094605;28;20052;-86
2021/09/21 12:48:45;;;;;;;2.97;2.80;;;;;;;;;;5080484;28;20004;-86
2021/09/21 12:51:11;;;;;;;2.88;2.60;;;;;;;;;;5075840;28;20005;-86
2021/09/21 12:53:37;;;;;;;2.92;2.72;;;;;;;;;;5083852;28;20005;-86
2021/09/21 12:56:06;;;;;;;5.47;2.83;;;;;;;;;;5081004;28;20025;-85
2021/09/21 12:58:38;;;;;;;2.70;2.50;;;;;;;;;;5068606;28;20021;-86
2021/09/21 13:01:05;;;;;;;3.00;2.70;;;;;;;;;;5061548;28;20084;-86
2021/09/21 13:03:32;;;;;;;5.35;3.78;;;;;;;;;;5063194;28;20029;-85
2021/09/21 13:05:57;;;;;;;2.85;2.70;;;;;;;;;;5058501;28;20013;-85
2021/09/21 13:08:23;;;;;;;7.78;3.38;;;;;;;;;;5068049;28;20017;-85
2021/09/21 13:10:48;;;;;;;3.40;3.20;;;;;;;;;;5070658;28;20028;-83
2021/09/21 13:13:14;;;;;;;3.25;3.05;;;;;;;;;;5062298;28;20450;-87
2021/09/21 13:15:41;;;;;;;2.75;2.55;;;;;;;;;;5062642;28;20049;-86
2021/09/21 13:18:06;;;;;;;4.50;3.13;;;;;;;;;;5065429;28;20021;-84
2021/09/21 13:20:33;;;;;;;3.45;3.13;;;;;;;;;;5061650;28;20017;-87
2021/09/21 13:22:58;;;;;;;3.05;2.75;;;;;;;;;;5059233;28;20475;-87
2021/09/21 13:25:24;;;;;;;3.00;2.80;;;;;;;;;;5062917;28;20032;-89
2021/09/21 13:27:50;;;;;;;2.60;2.40;;;;;;;;;;5061029;28;20025;-87
2021/09/21 13:30:16;;;;;;;2.80;2.60;;;;;;;;;;5063167;28;20068;-87
2021/09/21 13:32:42;;;;;;;3.03;2.83;;;;;;;;;;5063399;28;20025;-86
2021/09/21 13:35:11;;;;;;;3.60;3.40;;;;;;;;;;5057001;28;20446;-84
2021/09/21 13:37:38;;;;;;;3.00;2.80;;;;;;;;;;5061011;28;20120;-85
2021/09/21 13:40:04;;;;;;;3.17;2.97;;;;;;;;;;5054719;28;20009;-86
2021/09/21 13:42:29;;;;;;;6.00;3.50;;;;;;;;;;5060847;28;20030;-84
2021/09/21 13:44:55;;;;;;;3.80;3.50;;;;;;;;;;5057369;28;20077;-87
2021/09/21 13:47:20;;;;;;;3.70;3.40;;;;;;;;;;5059241;28;20017;-85
2021/09/21 13:49:45;;;;;;;2.83;2.60;;;;;;;;;;5060849;28;20040;-88
2021/09/21 13:52:10;;;;;;;3.00;2.80;;;;;;;;;;5060442;28;20028;-84
2021/09/21 13:54:36;;;;;;;3.67;3.38;;;;;;;;;;5058027;28;20418;-84
2021/09/21 13:57:02;;;;;;;4.13;3.05;;;;;;;;;;5063413;28;20020;-85
2021/09/21 13:59:28;;;;;;;3.78;2.85;;;;;;;;;;5057278;28;20025;-84
2021/09/21 14:01:53;;;;;;;4.10;3.40;;;;;;;;;;5078603;28;20072;-86
2021/09/21 14:04:18;;;;;;;6.30;4.13;;;;;;;;;;5068379;28;20663;-87
2021/09/21 14:06:43;;;;;;;3.25;3.05;;;;;;;;;;5075275;28;20039;-85
2021/09/21 14:09:09;;;;;;;3.17;2.88;;;;;;;;;;5070691;28;20359;-84
2021/09/21 14:11:35;;;;;;;3.47;3.28;;;;;;;;;;5058359;28;20029;-84
2021/09/21 14:14:00;;;;;;;3.65;3.35;;;;;;;;;;5054974;28;20036;-84
2021/09/21 14:16:25;;;;;;;3.10;2.85;;;;;;;;;;5045276;28;20028;-85
2021/09/21 14:18:50;;;;;;;3.42;3.10;;;;;;;;;;5048432;28;20104;-85
2021/09/21 14:21:16;;;;;;;4.18;2.45;;;;;;;;;;5066945;28;20410;-84
2021/09/21 14:23:41;;;;;;;16.58;4.68;;;;;;;;;;5061516;28;20025;-84
2021/09/21 14:26:07;;;;;;;4.53;3.03;;;;;;;;;;5060299;28;20042;-85
2021/09/21 14:28:32;;;;;;;3.50;3.17;;;;;;;;;;5054243;28;20024;-85
2021/09/21 14:30:58;;;;;;;4.00;3.42;;;;;;;;;;5057003;28;20025;-85
2021/09/21 14:33:23;;;;;;;3.42;3.15;;;;;;;;;;5056539;28;20052;-85
2021/09/21 14:35:50;;;;;;;4.55;3.05;;;;;;;;;;5054209;28;20490;-85
2021/09/21 14:38:19;;;;;;;3.47;2.80;;;;;;;;;;5054012;28;20043;-86
2021/09/21 14:40:45;;;;;;;3.38;2.80;;;;;;;;;;5057424;28;20031;-86
2021/09/21 14:43:10;;;;;;;3.50;3.20;;;;;;;;;;5057626;28;20080;-85
2021/09/21 14:45:35;;;;;;;4.10;3.70;;;;;;;;;;5054945;28;20013;-85
2021/09/21 14:48:01;;;;;;;4.70;3.72;;;;;;;;;;5061428;28;20016;-84
2021/09/21 14:50:26;;;;;;;6.00;4.78;;;;;;;;;;5058432;28;20447;-83